createdAt,value
2019-04-07T00:00:52.283Z,10.40
2019-04-07T00:15:51.168Z,10.02
2019-04-07T00:30:55.956Z,9.85
2019-04-07T01:00:53.973Z,10.23
2019-04-07T01:15:50.847Z,10.36
2019-04-07T01:30:51.608Z,10.59
2019-04-07T01:45:58.846Z,10.65
2019-04-07T02:30:52.617Z,10.51
2019-04-07T03:00:59.323Z,10.71
2019-04-07T03:15:54.556Z,10.69
2019-04-07T03:30:57.243Z,10.60
2019-04-07T04:15:53.099Z,10.54
2019-04-07T04:30:50.847Z,10.61
2019-04-07T04:45:50.675Z,10.63
2019-04-07T05:00:50.836Z,10.58
2019-04-07T05:15:51.122Z,10.50
2019-04-07T05:30:51.744Z,10.45
2019-04-07T05:45:50.985Z,10.47
2019-04-07T06:00:50.790Z,10.71
2019-04-07T06:15:52.897Z,11.02
2019-04-07T06:30:51.125Z,11.44
2019-04-07T07:30:52.380Z,12.98
2019-04-07T07:45:50.380Z,13.52
2019-04-07T08:00:50.619Z,14.05
2019-04-07T08:15:51.257Z,14.62
2019-04-07T08:30:52.635Z,14.72
2019-04-07T08:45:55.331Z,15.62
2019-04-07T09:00:53.972Z,16.15
2019-04-07T09:15:55.695Z,16.82
2019-04-07T10:15:53.254Z,17.34
2019-04-07T10:30:58.654Z,17.05
2019-04-07T11:00:52.710Z,16.65
2019-04-07T11:45:59.153Z,16.10
2019-04-07T12:00:55.299Z,16.01
2019-04-07T12:45:53.668Z,15.82
2019-04-07T13:01:01.348Z,15.80
2019-04-07T13:15:55.209Z,15.89
2019-04-07T13:45:53.859Z,15.86
2019-04-07T14:15:54.079Z,15.56
2019-04-07T15:01:02.691Z,15.65
2019-04-07T15:15:51.664Z,15.44
2019-04-07T15:30:54.089Z,15.15
2019-04-07T15:45:51.060Z,14.91
2019-04-07T16:00:51.662Z,14.68
2019-04-07T16:15:57.553Z,14.52
2019-04-07T16:30:54.643Z,14.31
2019-04-07T16:45:50.776Z,15.16
2019-04-07T17:00:56.168Z,14.20
2019-04-07T17:15:54.082Z,13.73
2019-04-07T17:30:50.691Z,13.47
2019-04-07T18:45:55.208Z,12.45
2019-04-07T19:00:55.378Z,12.31
2019-04-07T19:30:52.596Z,11.93
2019-04-07T20:00:56.805Z,11.71
2019-04-07T20:15:54.630Z,11.67
2019-04-07T21:01:00.672Z,11.71
2019-04-07T21:30:55.794Z,11.78
2019-04-07T22:15:57.893Z,11.82
2019-04-07T22:30:52.688Z,11.81
2019-04-07T22:45:59.058Z,11.66
2019-04-07T23:00:50.616Z,11.65
2019-04-07T23:15:50.963Z,11.55
2019-04-07T23:30:51.373Z,11.50
2019-04-07T23:45:51.704Z,11.65
